MSC Divina — 3FFA5 — position and weather

sailwx.info

Track history (hours):
 
Tides and Currents Weather Stations Pressure Air Temp Water Temp Dewpoint Dewpoint Depression Visibility Wind Speed Wind Dir Waves Ship Positions

MSC Divina

Last reported at 2015-May-24 22:31 UTC. Time now 2015-May-24 23:22 UTC.
Position N 44°06' E 009°50'.

Length 333 m; draft 8.7 m.

Type: Passenger vessel. MMSI: 373178000.

Date/timePositionNaut miles runAvg speedWind from/ knotsBaromVisibWave heightAir tempDewpointWater temp
2015-May-24 22:31N 44°06' E 009°50'0 0.0
2015-May-24 21:33N 44°06' E 009°50'0 0.0
2015-May-24 20:33N 44°06' E 009°50'0 0.0
2015-May-24 19:32N 44°06' E 009°50'0 0.0
2015-May-24 18:32N 44°06' E 009°50'0 0.0
2015-May-24 17:31N 44°06' E 009°50'0 0.0
2015-May-24 16:31N 44°06' E 009°50'0 0.0
2015-May-24 15:31N 44°06' E 009°50'0 0.0
2015-May-24 14:28N 44°06' E 009°50'0 0.0
2015-May-24 13:31N 44°06' E 009°50'0 0.0
2015-May-24 12:31N 44°06' E 009°50'0 0.0
2015-May-24 11:31N 44°06' E 009°50'0 0.0
2015-May-24 10:31N 44°06' E 009°50'0 0.0
2015-May-24 09:30N 44°06' E 009°50'0 0.0
2015-May-24 08:33N 44°06' E 009°50'0 0.0
2015-May-24 07:33N 44°06' E 009°50'0 0.0
2015-May-24 06:33N 44°06' E 009°50'0 0.1
2015-May-24 05:33N 44°06' E 009°50'6 5.7
2015-May-24 04:33N 44°02' E 009°55'1616.1
2015-May-24 03:34N 43°46' E 009°48'1515.1
2015-May-24 02:33N 43°33' E 009°38'1312.8
2015-May-24 01:33N 43°21' E 009°30'1010.3
2015-May-24 00:34N 43°14' E 009°40'1717.2
2015-May-23 23:34N 43°04' E 009°60'233 5.5
2015-May-22 05:27N 40°50' E 014°16'4 4.1
2015-May-22 04:34N 40°47' E 014°15'1313.1
2015-May-22 03:33N 40°38' E 014°02'9 8.6
2015-May-22 02:33N 40°36' E 013°51'9 8.8
2015-May-22 01:33N 40°35' E 013°40'9 9.2
2015-May-22 00:33N 40°34' E 013°27'  
2015-May-18 19:06N 42°50' E 006°28'1119.8
2015-May-18 18:32N 42°59' E 006°38'2219.0
2015-May-18 17:22N 43°18' E 006°54'1518.3
2015-May-18 16:33N 43°32' E 007°01'0 0.4
2015-May-18 15:31N 43°32' E 007°01'0 0.0
2015-May-18 14:18N 43°32' E 007°01'0 0.0
2015-May-18 13:32N 43°32' E 007°01'0 0.0
2015-May-18 12:32N 43°32' E 007°01'0 0.0
2015-May-18 11:33N 43°32' E 007°01'0 0.0
2015-May-18 10:33N 43°32' E 007°01'0 0.0
2015-May-18 09:33N 43°32' E 007°01'0 0.0
2015-May-18 08:33N 43°32' E 007°01'0 0.0
2015-May-18 07:33N 43°32' E 007°01'4 3.9
2015-May-18 06:34N 43°29' E 007°04'1815.8
2015-May-18 05:25N 43°30' E 007°28'1415.9
2015-May-18 04:34N 43°31' E 007°47'1816.1
2015-May-18 03:27N 43°35' E 008°11'1516.4
2015-May-18 02:34N 43°40' E 008°30'1817.9
2015-May-18 01:34N 43°45' E 008°54'1817.9
2015-May-18 00:34N 43°51' E 009°18'1918.6
2015-May-17 23:34N 43°57' E 009°42'1110.7
2015-May-17 22:34N 44°06' E 009°50'0 0.2
2015-May-17 21:33N 44°06' E 009°50'0 0.0
2015-May-17 20:33N 44°06' E 009°50'0 0.0
2015-May-17 19:33N 44°06' E 009°50'0 0.0
2015-May-17 18:33N 44°06' E 009°50'0 0.0
2015-May-17 17:33N 44°06' E 009°50'0 0.0
2015-May-17 16:33N 44°06' E 009°50'0 0.0
2015-May-17 15:33N 44°06' E 009°50'0 0.0
2015-May-17 14:33N 44°06' E 009°50'0 0.0
2015-May-17 13:32N 44°06' E 009°50'0 0.0
2015-May-17 12:32N 44°06' E 009°50'0 0.0
2015-May-17 11:31N 44°06' E 009°50'0 0.0
2015-May-17 10:31N 44°06' E 009°50'0 0.0
2015-May-17 09:33N 44°06' E 009°50'0 0.0
2015-May-17 08:33N 44°06' E 009°50'0 0.0
2015-May-17 07:32N 44°06' E 009°50'0 0.0
2015-May-17 06:33N 44°06' E 009°50'0 0.3
2015-May-17 05:34N 44°06' E 009°50'9 8.7
2015-May-17 04:33N 43°59' E 009°57'1716.8
2015-May-17 03:33N 43°44' E 009°47'1414.1
2015-May-17 02:34N 43°31' E 009°37'1312.7
2015-May-17 01:34N 43°20' E 009°30'1515.1
2015-May-17 00:33N 43°12' E 009°48'1716.6
2015-May-16 23:33N 42°58' E 010°01'2516.9
2015-May-16 22:06N 42°36' E 010°14'1118.0
2015-May-16 21:29N 42°29' E 010°26'143 6.1
2015-May-15 22:07N 40°46' E 012°38'2916.3
2015-May-15 20:22N 40°36' E 013°13'1416.7
2015-May-15 19:33N 40°35' E 013°31'1717.3
2015-May-15 18:33N 40°36' E 013°54'1717.0
2015-May-15 17:33N 40°46' E 014°12'5 1.5
2015-May-15 14:04N 40°50' E 014°16'0 0.0
2015-May-15 05:26N 40°50' E 014°16'3 3.4
2015-May-15 04:33N 40°47' E 014°15'1616.3
2015-May-15 03:33N 40°37' E 013°59'9 9.1
2015-May-15 02:33N 40°36' E 013°47'8 8.2
2015-May-15 01:33N 40°34' E 013°36'8 8.4
2015-May-15 00:33N 40°34' E 013°25'8 8.4
2015-May-14 23:33N 40°36' E 013°14'  
Track history (hours):
 
Tides and Currents Weather Stations Pressure Air Temp Water Temp Dewpoint Dewpoint Depression Visibility Wind Speed Wind Dir Waves Ship Positions

MSC Divina

Last reported at 2015-May-24 22:31 UTC. Time now 2015-May-24 23:22 UTC.
Position N 44°06' E 009°50'.

Length 333 m; draft 8.7 m.

Type: Passenger vessel. MMSI: 373178000.

Date/timePositionNaut miles runAvg speedWind from/ knotsBaromVisibWave heightAir tempDewpointWater temp
2015-May-24 22:31N 44°06' E 009°50'0 0.0
2015-May-24 21:33N 44°06' E 009°50'0 0.0
2015-May-24 20:33N 44°06' E 009°50'0 0.0
2015-May-24 19:32N 44°06' E 009°50'0 0.0
2015-May-24 18:32N 44°06' E 009°50'0 0.0
2015-May-24 17:31N 44°06' E 009°50'0 0.0
2015-May-24 16:31N 44°06' E 009°50'0 0.0
2015-May-24 15:31N 44°06' E 009°50'0 0.0
2015-May-24 14:28N 44°06' E 009°50'0 0.0
2015-May-24 13:31N 44°06' E 009°50'0 0.0
2015-May-24 12:31N 44°06' E 009°50'0 0.0
2015-May-24 11:31N 44°06' E 009°50'0 0.0
2015-May-24 10:31N 44°06' E 009°50'0 0.0
2015-May-24 09:30N 44°06' E 009°50'0 0.0
2015-May-24 08:33N 44°06' E 009°50'0 0.0
2015-May-24 07:33N 44°06' E 009°50'0 0.0
2015-May-24 06:33N 44°06' E 009°50'0 0.1
2015-May-24 05:33N 44°06' E 009°50'6 5.7
2015-May-24 04:33N 44°02' E 009°55'1616.1
2015-May-24 03:34N 43°46' E 009°48'1515.1
2015-May-24 02:33N 43°33' E 009°38'1312.8
2015-May-24 01:33N 43°21' E 009°30'1010.3
2015-May-24 00:34N 43°14' E 009°40'1717.2
2015-May-23 23:34N 43°04' E 009°60'233 5.5
2015-May-22 05:27N 40°50' E 014°16'4 4.1
2015-May-22 04:34N 40°47' E 014°15'1313.1
2015-May-22 03:33N 40°38' E 014°02'9 8.6
2015-May-22 02:33N 40°36' E 013°51'9 8.8
2015-May-22 01:33N 40°35' E 013°40'9 9.2
2015-May-22 00:33N 40°34' E 013°27'  
2015-May-18 19:06N 42°50' E 006°28'1119.8
2015-May-18 18:32N 42°59' E 006°38'2219.0
2015-May-18 17:22N 43°18' E 006°54'1518.3
2015-May-18 16:33N 43°32' E 007°01'0 0.4
2015-May-18 15:31N 43°32' E 007°01'0 0.0
2015-May-18 14:18N 43°32' E 007°01'0 0.0
2015-May-18 13:32N 43°32' E 007°01'0 0.0
2015-May-18 12:32N 43°32' E 007°01'0 0.0
2015-May-18 11:33N 43°32' E 007°01'0 0.0
2015-May-18 10:33N 43°32' E 007°01'0 0.0
2015-May-18 09:33N 43°32' E 007°01'0 0.0
2015-May-18 08:33N 43°32' E 007°01'0 0.0
2015-May-18 07:33N 43°32' E 007°01'4 3.9
2015-May-18 06:34N 43°29' E 007°04'1815.8
2015-May-18 05:25N 43°30' E 007°28'1415.9
2015-May-18 04:34N 43°31' E 007°47'1816.1
2015-May-18 03:27N 43°35' E 008°11'1516.4
2015-May-18 02:34N 43°40' E 008°30'1817.9
2015-May-18 01:34N 43°45' E 008°54'1817.9
2015-May-18 00:34N 43°51' E 009°18'1918.6
2015-May-17 23:34N 43°57' E 009°42'1110.7
2015-May-17 22:34N 44°06' E 009°50'0 0.2
2015-May-17 21:33N 44°06' E 009°50'0 0.0
2015-May-17 20:33N 44°06' E 009°50'0 0.0
2015-May-17 19:33N 44°06' E 009°50'0 0.0
2015-May-17 18:33N 44°06' E 009°50'0 0.0
2015-May-17 17:33N 44°06' E 009°50'0 0.0
2015-May-17 16:33N 44°06' E 009°50'0 0.0
2015-May-17 15:33N 44°06' E 009°50'0 0.0
2015-May-17 14:33N 44°06' E 009°50'0 0.0
2015-May-17 13:32N 44°06' E 009°50'0 0.0
2015-May-17 12:32N 44°06' E 009°50'0 0.0
2015-May-17 11:31N 44°06' E 009°50'0 0.0
2015-May-17 10:31N 44°06' E 009°50'0 0.0
2015-May-17 09:33N 44°06' E 009°50'0 0.0
2015-May-17 08:33N 44°06' E 009°50'0 0.0
2015-May-17 07:32N 44°06' E 009°50'0 0.0
2015-May-17 06:33N 44°06' E 009°50'0 0.3
2015-May-17 05:34N 44°06' E 009°50'9 8.7
2015-May-17 04:33N 43°59' E 009°57'1716.8
2015-May-17 03:33N 43°44' E 009°47'1414.1
2015-May-17 02:34N 43°31' E 009°37'1312.7
2015-May-17 01:34N 43°20' E 009°30'1515.1
2015-May-17 00:33N 43°12' E 009°48'1716.6
2015-May-16 23:33N 42°58' E 010°01'2516.9
2015-May-16 22:06N 42°36' E 010°14'1118.0
2015-May-16 21:29N 42°29' E 010°26'143 6.1
2015-May-15 22:07N 40°46' E 012°38'2916.3
2015-May-15 20:22N 40°36' E 013°13'1416.7
2015-May-15 19:33N 40°35' E 013°31'1717.3
2015-May-15 18:33N 40°36' E 013°54'1717.0
2015-May-15 17:33N 40°46' E 014°12'5 1.5
2015-May-15 14:04N 40°50' E 014°16'0 0.0
2015-May-15 05:26N 40°50' E 014°16'3 3.4
2015-May-15 04:33N 40°47' E 014°15'1616.3
2015-May-15 03:33N 40°37' E 013°59'9 9.1
2015-May-15 02:33N 40°36' E 013°47'8 8.2
2015-May-15 01:33N 40°34' E 013°36'8 8.4
2015-May-15 00:33N 40°34' E 013°25'8 8.4
2015-May-14 23:33N 40°36' E 013°14'  

Dump ship's entire track history